Terminal Aerodrome Forecast
Issued by NWS

Home | Current Version | Previous Version | Graphics & Text | Print | Product List | Glossary On
Versions: 1 2 3 4 5 6 7 8 9 10 11 12 13 14 15 16 17 18 19 20 21 22 23 24
000
FTUS43 KMPX 220500
TAFRNH
TAF
KRNH 220537Z 2206/2306 20007KT P6SM OVC010
     FM220900 20008KT 2SM BR OVC003
     FM221800 18008KT 3SM BR OVC007
     FM230300 18008KT 2SM BR OVC003=

USA.gov is the U.S. government's official web portal to all federal, state and local government web resources and services.